This is the latest recevied weather packets stored in our database for station/object SR6WXJG. If no packets are shown the sender has not sent any weather packets the latest 1 day(s).
| Time | Temp. | Humidity | Pressure | Rain* | Wind** | Luminosity | Snow |
|---|---|---|---|---|---|---|---|
| 1778083587 | 21.11° C | 71% | 1004 hPa | 0.25 mm | - | - | - |
| 1778080886 | 20.56° C | 66% | 1005 hPa | 0 mm | - | - | - |
| 1778076384 | 21.67° C | 54% | 1005 hPa | 0 mm | - | - | - |
| 1778073683 | 21.67° C | 52% | 1006 hPa | 0 mm | - | - | - |
| 1778068281 | 21.11° C | 54% | 1006 hPa | 0 mm | - | - | - |
| 1778065580 | 20.56° C | 58% | 1007 hPa | 0 mm | - | - | - |
| 1778063779 | 20.56° C | 57% | 1006 hPa | 0 mm | - | - | - |
| 1778062879 | 20° C | 61% | 1007 hPa | 0 mm | - | - | - |
| 1778061978 | 19.44° C | 63% | 1007 hPa | 0 mm | - | - | - |
| 1778061078 | 20° C | 62% | 1006 hPa | 0 mm | - | - | - |
| 1778060178 | 19.44° C | 62% | 1006 hPa | 0 mm | - | - | - |
| 1778058377 | 18.33° C | 69% | 1007 hPa | 0 mm | - | - | - |
| 1778056576 | 18.33° C | 69% | 1006 hPa | 0 mm | - | - | - |
| 1778055676 | 17.22° C | 73% | 1007 hPa | 0 mm | - | - | - |
| 1778053875 | 17.22° C | 76% | 1007 hPa | 0 mm | - | - | - |
| 1778052975 | 17.22° C | 77% | 1007 hPa | 0 mm | - | - | - |
| 1778051174 | 16.11° C | 81% | 1007 hPa | 0 mm | - | - | - |
| 1778050274 | 15.56° C | 82% | 1007 hPa | 0 mm | - | - | - |
| 1778048473 | 14.44° C | 85% | 1007 hPa | 0 mm | - | - | - |
| 1778047572 | 13.89° C | 87% | 1007 hPa | 0 mm | - | - | - |
| 1778046672 | 14.44° C | 87% | 1006 hPa | 0 mm | - | - | - |
| 1778043971 | 12.78° C | 90% | 1007 hPa | 0 mm | - | - | - |
| 1778043070 | 12.78° C | 91% | 1006 hPa | 0 mm | - | - | - |
| 1778042170 | 12.78° C | 91% | 1006 hPa | 0 mm | - | - | - |
| 1778040369 | 11.67° C | 93% | 1006 hPa | 0 mm | - | - | - |
* Rain latest hour (hover to see other rain measurements)
** Current wind speed in m/s (hover to see current wind gust speed)